sensor_id;sensor_type;location;lat;lon;timestamp;temperature;humidity
38428;DHT22;24211;49.980;19.776;2023-03-25T00:01:14;14.90;99.90
38428;DHT22;24211;49.980;19.776;2023-03-25T00:03:43;14.90;99.90
38428;DHT22;24211;49.980;19.776;2023-03-25T00:06:17;14.90;99.90
38428;DHT22;24211;49.980;19.776;2023-03-25T00:08:45;14.80;99.90
38428;DHT22;24211;49.980;19.776;2023-03-25T00:11:13;14.80;99.90
38428;DHT22;24211;49.980;19.776;2023-03-25T00:13:41;14.70;99.90
38428;DHT22;24211;49.980;19.776;2023-03-25T00:16:09;14.70;99.90
38428;DHT22;24211;49.980;19.776;2023-03-25T00:18:36;14.70;99.90
38428;DHT22;24211;49.980;19.776;2023-03-25T00:21:05;14.70;99.90
38428;DHT22;24211;49.980;19.776;2023-03-25T00:23:38;14.70;99.90
38428;DHT22;24211;49.980;19.776;2023-03-25T00:26:07;14.60;99.90
38428;DHT22;24211;49.980;19.776;2023-03-25T00:28:37;14.60;99.90
38428;DHT22;24211;49.980;19.776;2023-03-25T00:31:07;14.60;99.90
38428;DHT22;24211;49.980;19.776;2023-03-25T00:33:38;14.60;99.90
38428;DHT22;24211;49.980;19.776;2023-03-25T00:36:09;14.50;99.90
38428;DHT22;24211;49.980;19.776;2023-03-25T00:38:39;14.50;99.90
38428;DHT22;24211;49.980;19.776;2023-03-25T00:41:21;14.50;99.90
38428;DHT22;24211;49.980;19.776;2023-03-25T00:43:55;14.40;99.90
38428;DHT22;24211;49.980;19.776;2023-03-25T00:46:24;14.40;99.90
38428;DHT22;24211;49.980;19.776;2023-03-25T00:48:55;14.40;99.90
38428;DHT22;24211;49.980;19.776;2023-03-25T00:51:24;14.40;99.90
38428;DHT22;24211;49.980;19.776;2023-03-25T00:53:54;14.40;99.90
38428;DHT22;24211;49.980;19.776;2023-03-25T00:56:28;14.40;99.90
38428;DHT22;24211;49.980;19.776;2023-03-25T00:58:57;14.40;99.90
38428;DHT22;24211;49.980;19.776;2023-03-25T01:01:26;14.30;99.90
38428;DHT22;24211;49.980;19.776;2023-03-25T01:03:57;14.30;99.90
38428;DHT22;24211;49.980;19.776;2023-03-25T01:06:34;14.30;99.90
38428;DHT22;24211;49.980;19.776;2023-03-25T01:09:05;14.30;99.90
38428;DHT22;24211;49.980;19.776;2023-03-25T01:11:35;14.30;99.90
38428;DHT22;24211;49.980;19.776;2023-03-25T01:14:06;14.30;99.90
38428;DHT22;24211;49.980;19.776;2023-03-25T01:16:38;14.20;99.90
38428;DHT22;24211;49.980;19.776;2023-03-25T01:19:05;14.20;99.90
38428;DHT22;24211;49.980;19.776;2023-03-25T01:21:33;14.20;99.90
38428;DHT22;24211;49.980;19.776;2023-03-25T01:24:03;14.20;99.90
38428;DHT22;24211;49.980;19.776;2023-03-25T01:26:32;14.20;99.90
38428;DHT22;24211;49.980;19.776;2023-03-25T01:29:00;14.20;99.90
38428;DHT22;24211;49.980;19.776;2023-03-25T01:31:27;14.20;99.90
38428;DHT22;24211;49.980;19.776;2023-03-25T01:33:57;14.20;99.90
38428;DHT22;24211;49.980;19.776;2023-03-25T01:36:25;14.20;99.90
38428;DHT22;24211;49.980;19.776;2023-03-25T01:38:57;14.20;99.90
38428;DHT22;24211;49.980;19.776;2023-03-25T01:41:27;14.20;99.90
38428;DHT22;24211;49.980;19.776;2023-03-25T01:46:50;14.10;99.90
38428;DHT22;24211;49.980;19.776;2023-03-25T01:49:33;14.10;99.90
38428;DHT22;24211;49.980;19.776;2023-03-25T01:52:10;14.10;99.90
38428;DHT22;24211;49.980;19.776;2023-03-25T01:55:04;14.10;99.90
38428;DHT22;24211;49.980;19.776;2023-03-25T01:57:33;14.10;99.90
38428;DHT22;24211;49.980;19.776;2023-03-25T02:00:00;14.10;99.90
38428;DHT22;24211;49.980;19.776;2023-03-25T02:02:38;14.10;99.90
38428;DHT22;24211;49.980;19.776;2023-03-25T02:05:17;14.10;99.90
38428;DHT22;24211;49.980;19.776;2023-03-25T02:07:48;14.00;99.90
38428;DHT22;24211;49.980;19.776;2023-03-25T02:10:16;14.00;99.90
38428;DHT22;24211;49.980;19.776;2023-03-25T02:12:46;14.00;99.90
38428;DHT22;24211;49.980;19.776;2023-03-25T02:15:15;14.00;99.90
38428;DHT22;24211;49.980;19.776;2023-03-25T02:24:04;14.00;99.90
38428;DHT22;24211;49.980;19.776;2023-03-25T02:26:47;14.00;99.90
38428;DHT22;24211;49.980;19.776;2023-03-25T02:29:47;14.00;99.90
38428;DHT22;24211;49.980;19.776;2023-03-25T02:32:58;14.00;99.90
38428;DHT22;24211;49.980;19.776;2023-03-25T02:36:04;13.90;99.90
38428;DHT22;24211;49.980;19.776;2023-03-25T02:38:55;14.00;99.90
38428;DHT22;24211;49.980;19.776;2023-03-25T02:41:59;13.90;99.90
38428;DHT22;24211;49.980;19.776;2023-03-25T02:44:58;14.00;99.90
38428;DHT22;24211;49.980;19.776;2023-03-25T02:47:38;14.00;99.90
38428;DHT22;24211;49.980;19.776;2023-03-25T02:50:16;14.00;99.90
38428;DHT22;24211;49.980;19.776;2023-03-25T02:52:54;13.90;99.90
38428;DHT22;24211;49.980;19.776;2023-03-25T02:55:26;13.90;99.90
38428;DHT22;24211;49.980;19.776;2023-03-25T02:58:03;13.80;99.90
38428;DHT22;24211;49.980;19.776;2023-03-25T03:00:36;13.90;99.90
38428;DHT22;24211;49.980;19.776;2023-03-25T03:03:06;13.80;99.90
38428;DHT22;24211;49.980;19.776;2023-03-25T03:05:41;13.80;99.90
38428;DHT22;24211;49.980;19.776;2023-03-25T03:14:39;13.80;99.90
38428;DHT22;24211;49.980;19.776;2023-03-25T03:20:15;13.80;99.90
38428;DHT22;24211;49.980;19.776;2023-03-25T03:23:10;13.80;99.90
38428;DHT22;24211;49.980;19.776;2023-03-25T03:25:51;13.70;99.90
38428;DHT22;24211;49.980;19.776;2023-03-25T03:28:34;13.70;99.90
38428;DHT22;24211;49.980;19.776;2023-03-25T03:31:22;13.70;99.90
38428;DHT22;24211;49.980;19.776;2023-03-25T03:34:54;13.60;99.90
38428;DHT22;24211;49.980;19.776;2023-03-25T03:37:38;13.50;99.90
38428;DHT22;24211;49.980;19.776;2023-03-25T03:40:17;13.50;99.90
38428;DHT22;24211;49.980;19.776;2023-03-25T03:43:01;13.50;99.90
38428;DHT22;24211;49.980;19.776;2023-03-25T03:45:43;13.50;99.90
38428;DHT22;24211;49.980;19.776;2023-03-25T03:48:25;13.50;99.90
38428;DHT22;24211;49.980;19.776;2023-03-25T03:51:02;13.50;99.90
38428;DHT22;24211;49.980;19.776;2023-03-25T03:53:46;13.50;99.90
38428;DHT22;24211;49.980;19.776;2023-03-25T03:57:02;13.50;99.90
38428;DHT22;24211;49.980;19.776;2023-03-25T03:59:48;13.50;99.90
38428;DHT22;24211;49.980;19.776;2023-03-25T04:02:37;13.40;99.90
38428;DHT22;24211;49.980;19.776;2023-03-25T04:05:13;13.40;99.90
38428;DHT22;24211;49.980;19.776;2023-03-25T04:07:57;13.40;99.90
38428;DHT22;24211;49.980;19.776;2023-03-25T04:10:36;13.40;99.90
38428;DHT22;24211;49.980;19.776;2023-03-25T04:13:13;13.50;99.90
38428;DHT22;24211;49.980;19.776;2023-03-25T04:15:43;13.50;99.90
38428;DHT22;24211;49.980;19.776;2023-03-25T04:18:10;13.40;99.90
38428;DHT22;24211;49.980;19.776;2023-03-25T04:20:38;13.40;99.90
38428;DHT22;24211;49.980;19.776;2023-03-25T04:23:11;13.40;99.90
38428;DHT22;24211;49.980;19.776;2023-03-25T04:25:43;13.30;99.90
38428;DHT22;24211;49.980;19.776;2023-03-25T04:28:14;13.20;99.90
38428;DHT22;24211;49.980;19.776;2023-03-25T04:30:44;13.20;99.90
38428;DHT22;24211;49.980;19.776;2023-03-25T04:33:12;13.20;99.90
38428;DHT22;24211;49.980;19.776;2023-03-25T04:35:40;13.00;99.90
38428;DHT22;24211;49.980;19.776;2023-03-25T04:38:08;12.90;99.90
38428;DHT22;24211;49.980;19.776;2023-03-25T04:40:36;12.90;99.90
38428;DHT22;24211;49.980;19.776;2023-03-25T04:43:07;12.90;99.90
38428;DHT22;24211;49.980;19.776;2023-03-25T04:45:35;12.90;99.90
38428;DHT22;24211;49.980;19.776;2023-03-25T04:48:03;12.90;99.90
38428;DHT22;24211;49.980;19.776;2023-03-25T04:50:32;12.90;99.90
38428;DHT22;24211;49.980;19.776;2023-03-25T04:53:00;12.90;99.90
38428;DHT22;24211;49.980;19.776;2023-03-25T04:55:28;12.90;99.90
38428;DHT22;24211;49.980;19.776;2023-03-25T04:57:55;12.90;99.90
38428;DHT22;24211;49.980;19.776;2023-03-25T05:00:24;12.90;99.90
38428;DHT22;24211;49.980;19.776;2023-03-25T05:02:55;12.90;99.90
38428;DHT22;24211;49.980;19.776;2023-03-25T05:05:24;12.90;99.90
38428;DHT22;24211;49.980;19.776;2023-03-25T05:07:53;12.90;99.90
38428;DHT22;24211;49.980;19.776;2023-03-25T05:10:23;12.90;99.90
38428;DHT22;24211;49.980;19.776;2023-03-25T05:13:05;12.90;99.90
38428;DHT22;24211;49.980;19.776;2023-03-25T05:15:35;12.90;99.90
38428;DHT22;24211;49.980;19.776;2023-03-25T05:18:12;12.90;99.90
38428;DHT22;24211;49.980;19.776;2023-03-25T05:20:42;12.90;99.90
38428;DHT22;24211;49.980;19.776;2023-03-25T05:23:12;12.90;99.90
38428;DHT22;24211;49.980;19.776;2023-03-25T05:25:45;12.90;99.90
38428;DHT22;24211;49.980;19.776;2023-03-25T05:28:14;12.90;99.90
38428;DHT22;24211;49.980;19.776;2023-03-25T05:30:44;12.90;99.90
38428;DHT22;24211;49.980;19.776;2023-03-25T05:33:15;12.80;99.90
38428;DHT22;24211;49.980;19.776;2023-03-25T05:35:44;12.80;99.90
38428;DHT22;24211;49.980;19.776;2023-03-25T05:38:13;12.90;99.90
38428;DHT22;24211;49.980;19.776;2023-03-25T05:40:47;12.80;99.90
38428;DHT22;24211;49.980;19.776;2023-03-25T05:43:15;12.80;99.90
38428;DHT22;24211;49.980;19.776;2023-03-25T05:45:49;12.80;99.90
38428;DHT22;24211;49.980;19.776;2023-03-25T05:48:17;12.80;99.90
38428;DHT22;24211;49.980;19.776;2023-03-25T05:50:44;12.80;99.90
38428;DHT22;24211;49.980;19.776;2023-03-25T05:53:13;12.80;99.90
38428;DHT22;24211;49.980;19.776;2023-03-25T05:55:44;12.70;99.90
38428;DHT22;24211;49.980;19.776;2023-03-25T05:58:13;12.80;99.90
38428;DHT22;24211;49.980;19.776;2023-03-25T06:00:41;12.70;99.90
38428;DHT22;24211;49.980;19.776;2023-03-25T06:03:09;12.70;99.90
38428;DHT22;24211;49.980;19.776;2023-03-25T06:05:40;12.70;99.90
38428;DHT22;24211;49.980;19.776;2023-03-25T06:08:08;12.70;99.90
38428;DHT22;24211;49.980;19.776;2023-03-25T06:10:35;12.80;99.90
38428;DHT22;24211;49.980;19.776;2023-03-25T06:13:02;12.80;99.90
38428;DHT22;24211;49.980;19.776;2023-03-25T06:15:30;12.80;99.90
38428;DHT22;24211;49.980;19.776;2023-03-25T06:18:05;12.80;99.90
38428;DHT22;24211;49.980;19.776;2023-03-25T06:20:34;12.80;99.90
38428;DHT22;24211;49.980;19.776;2023-03-25T06:23:01;12.80;99.90
38428;DHT22;24211;49.980;19.776;2023-03-25T06:25:28;12.80;99.90
38428;DHT22;24211;49.980;19.776;2023-03-25T06:27:57;12.80;99.90
38428;DHT22;24211;49.980;19.776;2023-03-25T06:30:29;12.80;99.90
38428;DHT22;24211;49.980;19.776;2023-03-25T06:32:56;12.80;99.90
38428;DHT22;24211;49.980;19.776;2023-03-25T06:35:25;12.80;99.90
38428;DHT22;24211;49.980;19.776;2023-03-25T06:37:52;12.80;99.90
38428;DHT22;24211;49.980;19.776;2023-03-25T06:40:29;12.90;99.90
38428;DHT22;24211;49.980;19.776;2023-03-25T06:43:00;12.90;99.90
38428;DHT22;24211;49.980;19.776;2023-03-25T06:45:53;13.00;99.90
38428;DHT22;24211;49.980;19.776;2023-03-25T06:48:53;13.00;99.90
38428;DHT22;24211;49.980;19.776;2023-03-25T06:51:20;13.00;99.90
38428;DHT22;24211;49.980;19.776;2023-03-25T06:53:49;13.00;99.90
38428;DHT22;24211;49.980;19.776;2023-03-25T06:56:17;13.10;99.90
38428;DHT22;24211;49.980;19.776;2023-03-25T06:58:45;13.10;99.90
38428;DHT22;24211;49.980;19.776;2023-03-25T07:01:12;13.10;99.90
38428;DHT22;24211;49.980;19.776;2023-03-25T07:03:40;13.10;99.90
38428;DHT22;24211;49.980;19.776;2023-03-25T07:06:08;13.10;99.90
38428;DHT22;24211;49.980;19.776;2023-03-25T07:08:43;13.10;99.90
38428;DHT22;24211;49.980;19.776;2023-03-25T07:11:12;13.10;99.90
38428;DHT22;24211;49.980;19.776;2023-03-25T07:13:41;13.20;99.90
38428;DHT22;24211;49.980;19.776;2023-03-25T07:16:09;13.20;99.90
38428;DHT22;24211;49.980;19.776;2023-03-25T07:18:40;13.20;99.90
38428;DHT22;24211;49.980;19.776;2023-03-25T07:21:07;13.20;99.90
38428;DHT22;24211;49.980;19.776;2023-03-25T07:23:35;13.30;99.90
38428;DHT22;24211;49.980;19.776;2023-03-25T07:26:02;13.30;99.90
38428;DHT22;24211;49.980;19.776;2023-03-25T07:28:30;13.40;99.90
38428;DHT22;24211;49.980;19.776;2023-03-25T07:30:57;13.40;99.90
38428;DHT22;24211;49.980;19.776;2023-03-25T07:33:25;13.50;99.90
38428;DHT22;24211;49.980;19.776;2023-03-25T07:35:52;13.50;99.90
38428;DHT22;24211;49.980;19.776;2023-03-25T07:38:20;13.50;99.90
38428;DHT22;24211;49.980;19.776;2023-03-25T07:40:47;13.50;99.90
38428;DHT22;24211;49.980;19.776;2023-03-25T07:43:16;13.50;99.90
38428;DHT22;24211;49.980;19.776;2023-03-25T07:45:53;13.60;99.90
38428;DHT22;24211;49.980;19.776;2023-03-25T07:48:21;13.70;99.90
38428;DHT22;24211;49.980;19.776;2023-03-25T07:50:50;13.70;99.90
38428;DHT22;24211;49.980;19.776;2023-03-25T07:53:18;13.80;99.90
38428;DHT22;24211;49.980;19.776;2023-03-25T07:55:46;13.90;99.90
38428;DHT22;24211;49.980;19.776;2023-03-25T07:58:18;13.90;99.90
38428;DHT22;24211;49.980;19.776;2023-03-25T08:00:46;14.00;99.90
38428;DHT22;24211;49.980;19.776;2023-03-25T08:03:14;14.10;99.90
38428;DHT22;24211;49.980;19.776;2023-03-25T08:05:46;14.20;99.90
38428;DHT22;24211;49.980;19.776;2023-03-25T08:08:14;14.20;99.90
38428;DHT22;24211;49.980;19.776;2023-03-25T08:10:43;14.30;99.90
38428;DHT22;24211;49.980;19.776;2023-03-25T08:13:13;14.30;99.90
38428;DHT22;24211;49.980;19.776;2023-03-25T08:15:41;14.40;99.90
38428;DHT22;24211;49.980;19.776;2023-03-25T08:18:08;14.50;99.90
38428;DHT22;24211;49.980;19.776;2023-03-25T08:20:36;14.60;99.90
38428;DHT22;24211;49.980;19.776;2023-03-25T08:23:04;14.70;99.90
38428;DHT22;24211;49.980;19.776;2023-03-25T08:25:38;14.90;99.90
38428;DHT22;24211;49.980;19.776;2023-03-25T08:28:07;15.00;99.90
38428;DHT22;24211;49.980;19.776;2023-03-25T08:30:36;15.00;99.90
38428;DHT22;24211;49.980;19.776;2023-03-25T08:33:09;15.10;99.90
38428;DHT22;24211;49.980;19.776;2023-03-25T08:35:37;15.10;99.90
38428;DHT22;24211;49.980;19.776;2023-03-25T08:38:05;15.30;99.90
38428;DHT22;24211;49.980;19.776;2023-03-25T08:40:33;15.40;99.90
38428;DHT22;24211;49.980;19.776;2023-03-25T08:43:05;15.50;99.90
38428;DHT22;24211;49.980;19.776;2023-03-25T08:45:33;15.50;99.90
38428;DHT22;24211;49.980;19.776;2023-03-25T08:48:02;15.70;99.90
38428;DHT22;24211;49.980;19.776;2023-03-25T08:50:31;15.80;99.90
38428;DHT22;24211;49.980;19.776;2023-03-25T08:52:58;16.00;99.90
38428;DHT22;24211;49.980;19.776;2023-03-25T08:55:27;16.20;99.90
38428;DHT22;24211;49.980;19.776;2023-03-25T08:57:54;16.40;99.90
38428;DHT22;24211;49.980;19.776;2023-03-25T09:00:22;16.60;99.90
38428;DHT22;24211;49.980;19.776;2023-03-25T09:02:51;16.80;99.90
38428;DHT22;24211;49.980;19.776;2023-03-25T09:05:18;17.00;99.90
38428;DHT22;24211;49.980;19.776;2023-03-25T09:07:46;17.10;99.90
38428;DHT22;24211;49.980;19.776;2023-03-25T09:10:13;17.30;99.90
38428;DHT22;24211;49.980;19.776;2023-03-25T09:12:41;17.40;99.90
38428;DHT22;24211;49.980;19.776;2023-03-25T09:15:09;17.50;99.90
38428;DHT22;24211;49.980;19.776;2023-03-25T09:17:38;17.60;99.90
38428;DHT22;24211;49.980;19.776;2023-03-25T09:20:06;17.80;99.90
38428;DHT22;24211;49.980;19.776;2023-03-25T09:22:38;18.00;99.90
38428;DHT22;24211;49.980;19.776;2023-03-25T09:25:07;18.10;99.90
38428;DHT22;24211;49.980;19.776;2023-03-25T09:27:44;18.20;99.90
38428;DHT22;24211;49.980;19.776;2023-03-25T09:30:11;18.40;99.90
38428;DHT22;24211;49.980;19.776;2023-03-25T09:32:39;18.50;99.90
38428;DHT22;24211;49.980;19.776;2023-03-25T09:35:08;18.60;99.90
38428;DHT22;24211;49.980;19.776;2023-03-25T09:37:35;18.90;99.90
38428;DHT22;24211;49.980;19.776;2023-03-25T09:40:04;19.10;99.90
38428;DHT22;24211;49.980;19.776;2023-03-25T09:45:23;19.40;99.90
38428;DHT22;24211;49.980;19.776;2023-03-25T09:51:35;19.50;99.90
38428;DHT22;24211;49.980;19.776;2023-03-25T09:54:17;19.50;99.90
38428;DHT22;24211;49.980;19.776;2023-03-25T09:56:52;19.60;99.90
38428;DHT22;24211;49.980;19.776;2023-03-25T09:59:34;19.60;99.90
38428;DHT22;24211;49.980;19.776;2023-03-25T10:02:17;19.80;99.90
38428;DHT22;24211;49.980;19.776;2023-03-25T10:05:20;19.90;99.90
38428;DHT22;24211;49.980;19.776;2023-03-25T10:17:44;20.20;99.90
38428;DHT22;24211;49.980;19.776;2023-03-25T10:23:49;19.60;99.70
38428;DHT22;24211;49.980;19.776;2023-03-25T10:26:48;19.50;99.90
38428;DHT22;24211;49.980;19.776;2023-03-25T10:29:26;19.30;99.70
38428;DHT22;24211;49.980;19.776;2023-03-25T10:32:14;19.20;99.60
38428;DHT22;24211;49.980;19.776;2023-03-25T10:34:50;19.00;99.90
38428;DHT22;24211;49.980;19.776;2023-03-25T10:37:24;19.10;99.90
38428;DHT22;24211;49.980;19.776;2023-03-25T10:40:08;18.80;99.90
38428;DHT22;24211;49.980;19.776;2023-03-25T10:45:41;18.10;99.90
38428;DHT22;24211;49.980;19.776;2023-03-25T10:48:23;18.20;99.90
38428;DHT22;24211;49.980;19.776;2023-03-25T10:51:11;18.40;99.90
38428;DHT22;24211;49.980;19.776;2023-03-25T10:53:46;18.60;99.90
38428;DHT22;24211;49.980;19.776;2023-03-25T10:56:23;18.70;99.60
38428;DHT22;24211;49.980;19.776;2023-03-25T10:58:56;18.90;99.70
38428;DHT22;24211;49.980;19.776;2023-03-25T11:01:35;19.10;99.70
38428;DHT22;24211;49.980;19.776;2023-03-25T11:04:08;19.50;99.50
38428;DHT22;24211;49.980;19.776;2023-03-25T11:06:41;19.70;99.40
38428;DHT22;24211;49.980;19.776;2023-03-25T11:09:17;19.90;99.30
38428;DHT22;24211;49.980;19.776;2023-03-25T11:11:52;20.20;98.90
38428;DHT22;24211;49.980;19.776;2023-03-25T11:14:24;20.40;98.60
38428;DHT22;24211;49.980;19.776;2023-03-25T11:17:00;20.60;98.60
38428;DHT22;24211;49.980;19.776;2023-03-25T11:22:10;21.10;97.90
38428;DHT22;24211;49.980;19.776;2023-03-25T11:24:48;21.20;96.70
38428;DHT22;24211;49.980;19.776;2023-03-25T11:27:26;21.20;96.10
38428;DHT22;24211;49.980;19.776;2023-03-25T11:30:05;21.20;96.30
38428;DHT22;24211;49.980;19.776;2023-03-25T11:32:40;21.10;96.10
38428;DHT22;24211;49.980;19.776;2023-03-25T11:35:20;21.10;96.10
38428;DHT22;24211;49.980;19.776;2023-03-25T11:37:58;21.20;95.10
38428;DHT22;24211;49.980;19.776;2023-03-25T11:40:28;21.40;95.00
38428;DHT22;24211;49.980;19.776;2023-03-25T11:42:59;21.60;94.40
38428;DHT22;24211;49.980;19.776;2023-03-25T11:45:35;21.80;94.00
38428;DHT22;24211;49.980;19.776;2023-03-25T11:48:19;22.00;93.10
38428;DHT22;24211;49.980;19.776;2023-03-25T11:51:00;22.20;92.80
38428;DHT22;24211;49.980;19.776;2023-03-25T11:53:32;22.30;92.50
38428;DHT22;24211;49.980;19.776;2023-03-25T11:56:05;22.50;92.90
38428;DHT22;24211;49.980;19.776;2023-03-25T11:58:38;22.70;92.40
38428;DHT22;24211;49.980;19.776;2023-03-25T12:01:20;22.90;92.30
38428;DHT22;24211;49.980;19.776;2023-03-25T12:04:12;22.80;92.20
38428;DHT22;24211;49.980;19.776;2023-03-25T12:06:59;22.50;92.00
38428;DHT22;24211;49.980;19.776;2023-03-25T12:09:33;22.20;92.00
38428;DHT22;24211;49.980;19.776;2023-03-25T12:21:42;21.10;93.90
38428;DHT22;24211;49.980;19.776;2023-03-25T12:24:35;20.60;95.00
38428;DHT22;24211;49.980;19.776;2023-03-25T12:27:31;20.50;95.10
38428;DHT22;24211;49.980;19.776;2023-03-25T12:42:37;19.50;96.60
38428;DHT22;24211;49.980;19.776;2023-03-25T12:45:37;18.90;96.90
38428;DHT22;24211;49.980;19.776;2023-03-25T12:51:24;18.30;96.70
38428;DHT22;24211;49.980;19.776;2023-03-25T12:54:26;18.10;96.70
38428;DHT22;24211;49.980;19.776;2023-03-25T13:04:06;17.90;97.10
38428;DHT22;24211;49.980;19.776;2023-03-25T13:11:59;17.90;97.40
38428;DHT22;24211;49.980;19.776;2023-03-25T13:14:44;17.90;97.50
38428;DHT22;24211;49.980;19.776;2023-03-25T13:17:55;17.80;97.70
38428;DHT22;24211;49.980;19.776;2023-03-25T13:20:29;17.80;97.50
38428;DHT22;24211;49.980;19.776;2023-03-25T13:23:03;17.80;97.60
38428;DHT22;24211;49.980;19.776;2023-03-25T13:26:05;17.70;97.50
38428;DHT22;24211;49.980;19.776;2023-03-25T13:31:26;17.60;97.40
38428;DHT22;24211;49.980;19.776;2023-03-25T13:37:12;17.80;97.30
38428;DHT22;24211;49.980;19.776;2023-03-25T13:40:09;18.10;96.90
38428;DHT22;24211;49.980;19.776;2023-03-25T13:46:16;19.00;95.90
38428;DHT22;24211;49.980;19.776;2023-03-25T13:49:03;19.60;95.00
38428;DHT22;24211;49.980;19.776;2023-03-25T13:51:40;19.90;94.80
38428;DHT22;24211;49.980;19.776;2023-03-25T13:54:35;20.10;94.40
38428;DHT22;24211;49.980;19.776;2023-03-25T13:57:21;20.40;94.50
38428;DHT22;24211;49.980;19.776;2023-03-25T14:09:32;20.40;93.90
38428;DHT22;24211;49.980;19.776;2023-03-25T14:12:14;20.20;94.40
38428;DHT22;24211;49.980;19.776;2023-03-25T14:14:55;20.10;94.60
38428;DHT22;24211;49.980;19.776;2023-03-25T14:17:28;20.00;94.80
38428;DHT22;24211;49.980;19.776;2023-03-25T14:19:57;20.00;94.80
38428;DHT22;24211;49.980;19.776;2023-03-25T14:22:31;19.80;94.90
38428;DHT22;24211;49.980;19.776;2023-03-25T14:25:20;19.70;95.00
38428;DHT22;24211;49.980;19.776;2023-03-25T14:27:55;19.50;95.30
38428;DHT22;24211;49.980;19.776;2023-03-25T14:30:28;19.40;95.20
38428;DHT22;24211;49.980;19.776;2023-03-25T14:32:58;19.30;95.20
38428;DHT22;24211;49.980;19.776;2023-03-25T14:43:32;18.80;95.10
38428;DHT22;24211;49.980;19.776;2023-03-25T14:51:44;19.20;94.60
38428;DHT22;24211;49.980;19.776;2023-03-25T14:56:56;19.60;94.50
38428;DHT22;24211;49.980;19.776;2023-03-25T14:59:31;19.70;94.40
38428;DHT22;24211;49.980;19.776;2023-03-25T15:02:08;19.60;94.60
38428;DHT22;24211;49.980;19.776;2023-03-25T15:04:43;19.50;94.70
38428;DHT22;24211;49.980;19.776;2023-03-25T15:07:18;19.30;95.00
38428;DHT22;24211;49.980;19.776;2023-03-25T15:10:29;19.20;94.90
38428;DHT22;24211;49.980;19.776;2023-03-25T15:16:01;18.30;94.00
38428;DHT22;24211;49.980;19.776;2023-03-25T15:21:12;17.80;94.20
38428;DHT22;24211;49.980;19.776;2023-03-25T15:26:42;17.60;94.50
38428;DHT22;24211;49.980;19.776;2023-03-25T15:38:43;17.10;94.70
38428;DHT22;24211;49.980;19.776;2023-03-25T15:41:22;17.00;94.80
38428;DHT22;24211;49.980;19.776;2023-03-25T15:47:51;16.80;94.90
38428;DHT22;24211;49.980;19.776;2023-03-25T15:54:16;16.40;95.50
38428;DHT22;24211;49.980;19.776;2023-03-25T15:56:57;16.30;95.70
38428;DHT22;24211;49.980;19.776;2023-03-25T15:59:42;16.10;96.00
38428;DHT22;24211;49.980;19.776;2023-03-25T16:02:24;16.00;96.20
38428;DHT22;24211;49.980;19.776;2023-03-25T16:04:58;15.90;96.50
38428;DHT22;24211;49.980;19.776;2023-03-25T16:07:27;15.90;96.70
38428;DHT22;24211;49.980;19.776;2023-03-25T16:10:10;15.90;96.80
38428;DHT22;24211;49.980;19.776;2023-03-25T16:12:42;15.90;97.00
38428;DHT22;24211;49.980;19.776;2023-03-25T16:15:15;15.80;97.20
38428;DHT22;24211;49.980;19.776;2023-03-25T16:17:44;15.70;97.30
38428;DHT22;24211;49.980;19.776;2023-03-25T16:20:15;15.70;97.40
38428;DHT22;24211;49.980;19.776;2023-03-25T16:22:51;15.70;97.50
38428;DHT22;24211;49.980;19.776;2023-03-25T16:25:35;15.70;97.70
38428;DHT22;24211;49.980;19.776;2023-03-25T16:28:17;15.60;97.90
38428;DHT22;24211;49.980;19.776;2023-03-25T16:30:51;15.70;97.90
38428;DHT22;24211;49.980;19.776;2023-03-25T16:33:28;15.70;98.00
38428;DHT22;24211;49.980;19.776;2023-03-25T16:39:17;15.80;98.00
38428;DHT22;24211;49.980;19.776;2023-03-25T16:41:48;15.80;98.00
38428;DHT22;24211;49.980;19.776;2023-03-25T16:44:20;15.80;98.00
38428;DHT22;24211;49.980;19.776;2023-03-25T16:46:51;15.80;98.10
38428;DHT22;24211;49.980;19.776;2023-03-25T16:49:30;15.80;98.30
38428;DHT22;24211;49.980;19.776;2023-03-25T16:52:08;15.80;98.30
38428;DHT22;24211;49.980;19.776;2023-03-25T16:57:34;15.80;98.40
38428;DHT22;24211;49.980;19.776;2023-03-25T17:00:20;15.80;98.40
38428;DHT22;24211;49.980;19.776;2023-03-25T17:02:50;15.80;98.50
38428;DHT22;24211;49.980;19.776;2023-03-25T17:05:26;15.70;98.60
38428;DHT22;24211;49.980;19.776;2023-03-25T17:08:01;15.60;98.70
38428;DHT22;24211;49.980;19.776;2023-03-25T17:10:39;15.60;98.80
38428;DHT22;24211;49.980;19.776;2023-03-25T17:13:21;15.50;98.90
38428;DHT22;24211;49.980;19.776;2023-03-25T17:15:53;15.50;99.00
38428;DHT22;24211;49.980;19.776;2023-03-25T17:18:29;15.40;99.00
38428;DHT22;24211;49.980;19.776;2023-03-25T17:20:59;15.40;99.10
38428;DHT22;24211;49.980;19.776;2023-03-25T17:23:44;15.30;99.10
38428;DHT22;24211;49.980;19.776;2023-03-25T17:26:15;15.30;99.30
38428;DHT22;24211;49.980;19.776;2023-03-25T17:34:01;15.20;99.50
38428;DHT22;24211;49.980;19.776;2023-03-25T17:36:35;15.10;99.50
38428;DHT22;24211;49.980;19.776;2023-03-25T17:39:12;15.00;99.60
38428;DHT22;24211;49.980;19.776;2023-03-25T17:41:56;15.00;99.80
38428;DHT22;24211;49.980;19.776;2023-03-25T17:44:37;14.90;99.90
38428;DHT22;24211;49.980;19.776;2023-03-25T17:47:07;14.80;99.90
38428;DHT22;24211;49.980;19.776;2023-03-25T17:49:40;14.80;99.90
38428;DHT22;24211;49.980;19.776;2023-03-25T17:52:09;14.80;99.90
38428;DHT22;24211;49.980;19.776;2023-03-25T17:54:37;14.80;99.90
38428;DHT22;24211;49.980;19.776;2023-03-25T17:57:13;14.80;99.90
38428;DHT22;24211;49.980;19.776;2023-03-25T17:59:43;14.80;99.90
38428;DHT22;24211;49.980;19.776;2023-03-25T18:02:14;14.70;99.90
38428;DHT22;24211;49.980;19.776;2023-03-25T18:04:43;14.70;99.90
38428;DHT22;24211;49.980;19.776;2023-03-25T18:07:10;14.70;99.90
38428;DHT22;24211;49.980;19.776;2023-03-25T18:09:38;14.70;99.90
38428;DHT22;24211;49.980;19.776;2023-03-25T18:12:07;14.60;99.90
38428;DHT22;24211;49.980;19.776;2023-03-25T18:14:35;14.60;99.90
38428;DHT22;24211;49.980;19.776;2023-03-25T18:17:02;14.60;99.90
38428;DHT22;24211;49.980;19.776;2023-03-25T18:19:30;14.60;99.90
38428;DHT22;24211;49.980;19.776;2023-03-25T18:21:59;14.60;99.90
38428;DHT22;24211;49.980;19.776;2023-03-25T18:24:45;14.50;99.90
38428;DHT22;24211;49.980;19.776;2023-03-25T18:27:12;14.50;99.90
38428;DHT22;24211;49.980;19.776;2023-03-25T18:29:40;14.50;99.90
38428;DHT22;24211;49.980;19.776;2023-03-25T18:32:08;14.50;99.90
38428;DHT22;24211;49.980;19.776;2023-03-25T18:34:35;14.50;99.90